createdAt,value
2023-04-25T00:01:42.028Z,15.50
2023-04-25T00:04:09.238Z,15.50
2023-04-25T00:06:37.314Z,15.50
2023-04-25T00:09:08.179Z,15.50
2023-04-25T00:11:35.341Z,15.60
2023-04-25T00:14:03.317Z,15.40
2023-04-25T00:16:34.337Z,15.40
2023-04-25T00:19:05.338Z,15.40
2023-04-25T00:21:32.686Z,15.50
2023-04-25T00:24:00.215Z,15.40
2023-04-25T00:26:28.085Z,15.40
2023-04-25T00:28:54.768Z,15.40
2023-04-25T00:31:21.516Z,15.40
2023-04-25T00:33:49.355Z,15.50
2023-04-25T00:36:16.302Z,15.40
2023-04-25T00:38:42.930Z,15.40
2023-04-25T00:41:09.739Z,15.50
2023-04-25T00:43:38.396Z,15.40
2023-04-25T00:46:05.294Z,15.50
2023-04-25T00:48:32.424Z,15.50
2023-04-25T00:51:00.774Z,15.40
2023-04-25T00:53:28.781Z,15.50
2023-04-25T00:55:55.936Z,15.50
2023-04-25T00:58:24.142Z,15.50
2023-04-25T01:00:53.238Z,15.40
2023-04-25T01:03:21.494Z,15.50
2023-04-25T01:05:49.145Z,15.50
2023-04-25T01:08:16.033Z,15.50
2023-04-25T01:10:42.777Z,15.50
2023-04-25T01:13:09.924Z,15.50
2023-04-25T01:15:37.054Z,15.40
2023-04-25T01:18:05.758Z,15.40
2023-04-25T01:20:34.400Z,15.30
2023-04-25T01:23:03.039Z,15.20
2023-04-25T01:25:31.172Z,15.20
2023-04-25T01:27:59.219Z,15.30
2023-04-25T01:30:28.231Z,15.30
2023-04-25T01:32:58.800Z,15.30
2023-04-25T01:35:26.351Z,15.20
2023-04-25T01:37:53.314Z,15.20
2023-04-25T01:40:22.972Z,15.20
2023-04-25T01:42:50.090Z,15.20
2023-04-25T01:45:16.988Z,15.20
2023-04-25T01:47:44.882Z,15.10
2023-04-25T01:50:12.361Z,15.00
2023-04-25T01:52:39.586Z,15.10
2023-04-25T01:55:07.315Z,15.10
2023-04-25T01:57:34.183Z,15.10
2023-04-25T02:00:03.830Z,15.10
2023-04-25T02:02:30.782Z,15.00
2023-04-25T02:04:57.623Z,15.00
2023-04-25T02:07:24.407Z,14.90
2023-04-25T02:09:51.219Z,15.00
2023-04-25T02:12:17.941Z,14.90
2023-04-25T02:14:44.703Z,14.80
2023-04-25T02:17:13.789Z,14.90
2023-04-25T02:19:40.747Z,14.80
2023-04-25T02:22:07.470Z,14.80
2023-04-25T02:24:35.740Z,14.80
2023-04-25T02:27:02.681Z,14.70
2023-04-25T02:29:30.040Z,14.70
2023-04-25T02:31:56.937Z,14.70
2023-04-25T02:34:23.684Z,14.70
2023-04-25T02:36:52.033Z,14.60
2023-04-25T02:39:19.044Z,14.60
2023-04-25T02:41:45.811Z,14.60
2023-04-25T02:44:12.464Z,14.60
2023-04-25T02:46:39.958Z,14.60
2023-04-25T02:49:07.741Z,14.60
2023-04-25T02:51:34.550Z,14.60
2023-04-25T02:54:01.299Z,14.50
2023-04-25T02:56:28.111Z,14.40
2023-04-25T02:58:55.072Z,14.50
2023-04-25T03:01:21.901Z,14.40
2023-04-25T03:03:48.989Z,14.50
2023-04-25T03:06:16.710Z,14.50
2023-04-25T03:08:44.102Z,14.30
2023-04-25T03:11:11.539Z,14.40
2023-04-25T03:13:38.376Z,14.20
2023-04-25T03:16:05.655Z,14.10
2023-04-25T03:18:32.629Z,14.20
2023-04-25T03:20:59.484Z,14.20
2023-04-25T03:23:27.190Z,14.20
2023-04-25T03:25:53.911Z,14.10
2023-04-25T03:28:21.190Z,14.10
2023-04-25T03:30:48.031Z,14.10
2023-04-25T03:33:14.742Z,14.10
2023-04-25T03:35:41.502Z,14.20
2023-04-25T03:38:08.280Z,14.10
2023-04-25T03:40:35.341Z,14.10
2023-04-25T03:43:02.005Z,14.20
2023-04-25T03:45:28.697Z,14.10
2023-04-25T03:47:55.454Z,14.10
2023-04-25T03:50:22.108Z,14.00
2023-04-25T03:52:48.876Z,14.00
2023-04-25T03:55:15.737Z,14.00
2023-04-25T03:57:42.434Z,13.90
2023-04-25T04:00:10.291Z,13.90
2023-04-25T04:02:38.553Z,14.00
2023-04-25T04:05:06.876Z,13.90
2023-04-25T04:07:34.351Z,14.00
2023-04-25T04:10:01.011Z,13.90
2023-04-25T04:12:27.658Z,13.80
2023-04-25T04:14:54.559Z,13.80
2023-04-25T04:17:21.551Z,13.70
2023-04-25T04:19:48.335Z,13.70
2023-04-25T04:22:15.474Z,13.80
2023-04-25T04:24:44.906Z,13.80
2023-04-25T04:27:13.618Z,13.70
2023-04-25T04:29:40.436Z,13.80
2023-04-25T04:32:07.103Z,13.80
2023-04-25T04:34:34.851Z,13.70
2023-04-25T04:37:02.037Z,13.70
2023-04-25T04:39:29.111Z,13.70
2023-04-25T04:41:55.853Z,13.70
2023-04-25T04:44:22.573Z,13.70
2023-04-25T04:46:49.730Z,13.60
2023-04-25T04:49:16.500Z,13.60
2023-04-25T04:51:45.492Z,13.50
2023-04-25T04:54:12.281Z,13.60
2023-04-25T04:56:39.310Z,13.50
2023-04-25T04:59:06.229Z,13.60
2023-04-25T05:01:33.075Z,13.70
2023-04-25T05:04:01.797Z,13.80
2023-04-25T05:06:30.252Z,13.80
2023-04-25T05:08:57.677Z,13.80
2023-04-25T05:11:25.918Z,13.80
2023-04-25T05:13:54.154Z,13.90
2023-04-25T05:16:21.597Z,14.00
2023-04-25T05:18:48.879Z,13.90
2023-04-25T05:21:15.777Z,13.90
2023-04-25T05:23:42.495Z,13.80
2023-04-25T05:26:14.653Z,13.90
2023-04-25T05:28:42.855Z,14.00
2023-04-25T05:31:11.367Z,14.10
2023-04-25T05:33:38.281Z,14.10
2023-04-25T05:36:05.409Z,14.20
2023-04-25T05:38:34.623Z,14.20
2023-04-25T05:41:01.902Z,14.30
2023-04-25T05:43:29.014Z,14.40
2023-04-25T05:45:55.805Z,14.50
2023-04-25T05:48:22.740Z,14.50
2023-04-25T05:50:49.828Z,14.70
2023-04-25T05:53:16.597Z,14.70
2023-04-25T05:55:43.345Z,14.80
2023-04-25T05:58:10.142Z,14.80
2023-04-25T06:00:37.071Z,14.80
2023-04-25T06:03:04.421Z,14.90
2023-04-25T06:05:31.640Z,14.90
2023-04-25T06:07:58.486Z,15.00
2023-04-25T06:10:25.110Z,15.10
2023-04-25T06:12:51.897Z,15.20
2023-04-25T06:15:27.935Z,15.10
2023-04-25T06:17:56.569Z,15.20
2023-04-25T06:20:25.341Z,15.20
2023-04-25T06:22:55.372Z,15.30
2023-04-25T06:25:22.433Z,15.30
2023-04-25T06:27:49.163Z,15.40
2023-04-25T06:30:16.233Z,15.50
2023-04-25T06:32:43.016Z,15.30
2023-04-25T06:35:09.965Z,15.30
2023-04-25T06:37:36.612Z,15.40
2023-04-25T06:40:03.569Z,15.60
2023-04-25T06:42:30.427Z,15.70
2023-04-25T06:44:57.122Z,15.70
2023-04-25T06:47:23.895Z,15.70
2023-04-25T06:49:51.047Z,15.90
2023-04-25T06:52:19.075Z,16.00
2023-04-25T06:54:46.374Z,16.20
2023-04-25T06:57:13.134Z,16.10
2023-04-25T06:59:39.967Z,16.00
2023-04-25T07:02:07.130Z,16.00
2023-04-25T07:04:33.959Z,16.00
2023-04-25T07:07:03.533Z,16.10
2023-04-25T07:09:30.778Z,16.30
2023-04-25T07:11:57.689Z,16.50
2023-04-25T07:14:24.969Z,16.70
2023-04-25T07:16:51.788Z,16.80
2023-04-25T07:19:18.478Z,17.00
2023-04-25T07:21:45.088Z,17.00
2023-04-25T07:24:11.864Z,17.00
2023-04-25T07:26:38.576Z,16.90
2023-04-25T07:29:05.697Z,16.90
2023-04-25T07:31:32.542Z,17.00
2023-04-25T07:34:01.746Z,16.70
2023-04-25T07:36:28.754Z,16.80
2023-04-25T07:38:55.509Z,16.70
2023-04-25T07:41:22.166Z,16.50
2023-04-25T07:43:49.979Z,16.40
2023-04-25T07:46:16.969Z,16.60
2023-04-25T07:48:43.765Z,16.50
2023-04-25T07:51:10.431Z,16.20
2023-04-25T07:53:38.924Z,16.40
2023-04-25T07:56:06.029Z,16.40
2023-04-25T07:58:32.763Z,16.60
2023-04-25T08:00:59.833Z,16.80
2023-04-25T08:03:26.764Z,16.60
2023-04-25T08:05:53.924Z,16.50
2023-04-25T08:08:20.849Z,16.30
2023-04-25T08:10:49.138Z,16.00
2023-04-25T08:13:15.970Z,16.10
2023-04-25T08:15:42.778Z,16.20
2023-04-25T08:18:09.721Z,16.10
2023-04-25T08:20:36.733Z,16.10
2023-04-25T08:23:03.636Z,16.10
2023-04-25T08:25:30.247Z,16.30
2023-04-25T08:27:58.085Z,16.20
2023-04-25T08:30:24.899Z,16.30
2023-04-25T08:32:52.102Z,16.30
2023-04-25T08:35:19.133Z,16.50
2023-04-25T08:37:45.814Z,16.40
2023-04-25T08:40:15.181Z,16.20
2023-04-25T08:42:42.859Z,16.30
2023-04-25T08:45:10.538Z,16.60
2023-04-25T08:47:39.380Z,16.90
2023-04-25T08:50:07.701Z,16.90
2023-04-25T08:52:39.191Z,17.00
2023-04-25T08:55:09.964Z,17.20
2023-04-25T08:57:37.793Z,17.50
2023-04-25T09:00:05.227Z,17.80
2023-04-25T09:02:32.644Z,18.10
2023-04-25T09:05:00.323Z,18.30
2023-04-25T09:07:27.152Z,17.90
2023-04-25T09:09:53.893Z,17.90
2023-04-25T09:12:21.142Z,17.70
2023-04-25T09:15:06.418Z,18.00
2023-04-25T09:17:33.276Z,18.40
2023-04-25T09:20:11.615Z,18.60
2023-04-25T09:22:39.297Z,18.70
2023-04-25T09:25:10.935Z,18.40
2023-04-25T09:27:49.687Z,18.30
2023-04-25T09:30:17.434Z,18.30
2023-04-25T09:32:45.670Z,18.50
2023-04-25T09:35:23.960Z,18.50
2023-04-25T09:37:51.796Z,18.60
2023-04-25T09:40:19.420Z,18.80
2023-04-25T09:42:46.594Z,19.00
2023-04-25T09:45:16.431Z,19.00
2023-04-25T09:47:44.942Z,18.90
2023-04-25T09:50:20.017Z,18.90
2023-04-25T09:52:46.869Z,18.80
2023-04-25T09:55:13.535Z,18.60
2023-04-25T09:57:40.928Z,18.10
2023-04-25T10:00:12.016Z,18.00
2023-04-25T10:02:43.378Z,17.80
2023-04-25T10:05:11.681Z,17.90
2023-04-25T10:07:39.741Z,17.90
2023-04-25T10:10:07.233Z,17.60
2023-04-25T10:12:35.209Z,17.80
2023-04-25T10:15:03.695Z,17.90
2023-04-25T10:17:30.807Z,18.50
2023-04-25T10:19:58.353Z,18.90
2023-04-25T10:22:33.952Z,19.10
2023-04-25T10:25:01.584Z,19.00
2023-04-25T10:27:29.100Z,19.20
2023-04-25T10:30:11.240Z,19.50
2023-04-25T10:32:38.280Z,20.00
2023-04-25T10:35:40.704Z,20.20
2023-04-25T10:38:11.812Z,20.10
2023-04-25T10:40:38.655Z,20.30
2023-04-25T10:43:38.335Z,20.70
2023-04-25T10:46:27.500Z,21.10
2023-04-25T10:49:02.620Z,21.20
2023-04-25T10:51:53.939Z,21.30
2023-04-25T10:54:24.081Z,21.50
2023-04-25T10:56:51.912Z,21.00
2023-04-25T10:59:19.731Z,20.50
2023-04-25T11:01:47.594Z,20.70
2023-04-25T11:04:37.308Z,21.00
2023-04-25T11:07:08.010Z,21.20
2023-04-25T11:09:36.534Z,21.60
2023-04-25T11:12:03.483Z,21.80
2023-04-25T11:14:30.223Z,22.30
2023-04-25T11:17:00.374Z,22.70
2023-04-25T11:19:28.996Z,22.80
2023-04-25T11:22:00.917Z,22.90
2023-04-25T11:24:31.813Z,22.40
2023-04-25T11:27:03.777Z,22.30
2023-04-25T11:29:31.529Z,22.00
2023-04-25T11:32:02.181Z,21.60
2023-04-25T11:34:34.090Z,21.60
2023-04-25T11:37:02.927Z,22.10
2023-04-25T11:39:31.177Z,22.60
2023-04-25T11:41:58.211Z,22.90
2023-04-25T11:44:25.258Z,23.20
2023-04-25T11:46:52.049Z,23.30
2023-04-25T11:49:19.498Z,23.30
2023-04-25T11:51:48.781Z,23.10
2023-04-25T11:54:16.302Z,22.90
2023-04-25T11:56:45.006Z,23.00
2023-04-25T11:59:13.012Z,23.20
2023-04-25T12:01:42.089Z,23.30
2023-04-25T12:04:26.182Z,23.40
2023-04-25T12:06:54.828Z,23.60
2023-04-25T12:09:30.688Z,23.40
2023-04-25T12:11:59.492Z,23.20
2023-04-25T12:14:52.302Z,23.30
2023-04-25T12:17:18.954Z,23.30
2023-04-25T12:19:48.228Z,23.50
2023-04-25T12:22:25.719Z,23.50
2023-04-25T12:24:54.346Z,23.30
2023-04-25T12:27:21.058Z,22.80
2023-04-25T12:29:57.849Z,22.10
2023-04-25T12:32:25.313Z,21.70
2023-04-25T12:34:52.288Z,21.40
2023-04-25T12:37:19.199Z,21.00
2023-04-25T12:39:46.227Z,21.00
2023-04-25T12:42:13.384Z,20.80
2023-04-25T12:44:41.437Z,20.70
2023-04-25T12:47:08.413Z,20.80
2023-04-25T12:49:35.256Z,20.70
2023-04-25T12:52:02.020Z,20.50
2023-04-25T12:54:28.748Z,20.40
2023-04-25T12:56:55.881Z,20.10
2023-04-25T12:59:22.721Z,19.90
2023-04-25T13:01:49.591Z,19.90
2023-04-25T13:04:16.879Z,19.70
2023-04-25T13:06:44.099Z,19.60
2023-04-25T13:09:12.354Z,19.50
2023-04-25T13:11:39.651Z,19.10
2023-04-25T13:14:06.474Z,18.50
2023-04-25T13:16:33.258Z,18.10
2023-04-25T13:19:00.000Z,17.70
2023-04-25T13:21:26.823Z,17.60
2023-04-25T13:23:53.947Z,17.60
2023-04-25T13:26:21.249Z,17.50
2023-04-25T13:28:48.160Z,17.40
2023-04-25T13:31:14.874Z,17.40
2023-04-25T13:33:41.533Z,17.50
2023-04-25T13:36:08.389Z,17.60
2023-04-25T13:38:35.126Z,17.70
2023-04-25T13:41:02.061Z,17.80
2023-04-25T13:43:28.794Z,17.90
2023-04-25T13:45:55.590Z,17.90
2023-04-25T13:48:23.563Z,17.90
2023-04-25T13:50:50.596Z,17.90
2023-04-25T13:53:17.305Z,19.20
2023-04-25T13:55:44.025Z,22.70
2023-04-25T13:58:11.361Z,24.40
2023-04-25T14:00:40.101Z,26.40
2023-04-25T14:03:08.290Z,27.70
2023-04-25T14:05:40.054Z,29.10
2023-04-25T14:08:10.942Z,29.50
2023-04-25T14:10:38.187Z,30.60
2023-04-25T14:13:05.750Z,31.00
2023-04-25T14:15:33.480Z,31.30
2023-04-25T14:18:01.175Z,31.10
2023-04-25T14:20:28.841Z,31.30
2023-04-25T14:22:57.116Z,31.50
2023-04-25T14:25:24.590Z,31.90
2023-04-25T14:27:51.582Z,31.80
2023-04-25T14:30:20.103Z,31.60
2023-04-25T14:32:47.519Z,31.70
2023-04-25T14:35:14.473Z,31.50
2023-04-25T14:37:41.527Z,31.30
2023-04-25T14:40:11.584Z,30.00
2023-04-25T14:42:38.894Z,29.40
2023-04-25T14:45:08.447Z,29.40
2023-04-25T14:47:37.054Z,29.70
2023-04-25T14:50:05.812Z,30.20
2023-04-25T14:52:32.554Z,30.10
2023-04-25T14:55:01.388Z,29.30
2023-04-25T14:57:28.347Z,29.10
2023-04-25T14:59:55.244Z,28.70
2023-04-25T15:02:22.442Z,28.30
2023-04-25T15:04:49.315Z,28.60
2023-04-25T15:07:18.205Z,29.00
2023-04-25T15:09:45.357Z,29.40
2023-04-25T15:12:12.837Z,29.80
2023-04-25T15:14:39.502Z,29.80
2023-04-25T15:17:06.414Z,29.70
2023-04-25T15:19:33.259Z,29.90
2023-04-25T15:22:03.882Z,30.40
2023-04-25T15:24:30.984Z,30.10
2023-04-25T15:26:57.772Z,29.80
2023-04-25T15:29:24.656Z,29.40
2023-04-25T15:31:51.540Z,29.00
2023-04-25T15:34:18.565Z,29.10
2023-04-25T15:36:46.434Z,28.90
2023-04-25T15:39:13.253Z,28.50
2023-04-25T15:41:40.316Z,28.40
2023-04-25T15:44:07.938Z,28.00
2023-04-25T15:46:34.765Z,27.80
2023-04-25T15:49:01.560Z,27.50
2023-04-25T15:51:28.319Z,27.20
2023-04-25T15:53:55.077Z,26.90
2023-04-25T15:56:22.057Z,26.30
2023-04-25T15:58:48.938Z,25.80
2023-04-25T16:01:15.777Z,25.30
2023-04-25T16:03:42.773Z,24.80
2023-04-25T16:06:09.608Z,24.60
2023-04-25T16:08:36.410Z,24.50
2023-04-25T16:11:03.542Z,24.30
2023-04-25T16:13:30.493Z,24.10
2023-04-25T16:15:57.836Z,24.00
2023-04-25T16:18:24.867Z,24.00
2023-04-25T16:20:51.583Z,24.00
2023-04-25T16:23:19.203Z,24.00
2023-04-25T16:25:46.221Z,23.90
2023-04-25T16:28:12.987Z,23.80
2023-04-25T16:30:39.733Z,23.60
2023-04-25T16:33:06.611Z,23.50
2023-04-25T16:35:33.550Z,23.40
2023-04-25T16:38:01.033Z,23.20
2023-04-25T16:40:27.886Z,23.00
2023-04-25T16:42:54.698Z,23.00
2023-04-25T16:45:21.952Z,22.90
2023-04-25T16:47:48.793Z,22.80
2023-04-25T16:50:16.614Z,22.70
2023-04-25T16:52:44.549Z,22.50
2023-04-25T16:55:11.328Z,22.20
2023-04-25T16:57:38.061Z,22.00
2023-04-25T17:00:06.170Z,21.80
2023-04-25T17:02:33.124Z,21.50
2023-04-25T17:05:00.097Z,21.00
2023-04-25T17:07:27.784Z,20.80
2023-04-25T17:09:54.583Z,20.50
2023-04-25T17:12:22.198Z,20.40
2023-04-25T17:14:49.956Z,20.30
2023-04-25T17:17:18.930Z,20.20
2023-04-25T17:19:46.554Z,20.10
2023-04-25T17:22:13.410Z,20.00
2023-04-25T17:24:40.931Z,19.80
2023-04-25T17:27:07.592Z,19.70
2023-04-25T17:29:35.165Z,19.40
2023-04-25T17:32:02.064Z,19.20
2023-04-25T17:34:29.082Z,18.90
2023-04-25T17:36:55.855Z,18.60
2023-04-25T17:39:22.838Z,18.30
2023-04-25T17:41:49.536Z,18.10
2023-04-25T17:44:16.271Z,17.80
2023-04-25T17:46:43.041Z,17.70
2023-04-25T17:49:09.732Z,17.50
2023-04-25T17:51:36.701Z,17.40
2023-04-25T17:54:03.497Z,17.30
2023-04-25T17:56:30.638Z,17.20
2023-04-25T17:58:57.500Z,17.10
2023-04-25T18:01:24.367Z,17.00
2023-04-25T18:03:52.311Z,16.80
2023-04-25T18:06:19.206Z,16.70
2023-04-25T18:08:47.077Z,16.60
2023-04-25T18:11:13.863Z,16.50
2023-04-25T18:13:41.031Z,16.50
2023-04-25T18:16:08.332Z,16.40
2023-04-25T18:18:36.164Z,16.40
2023-04-25T18:21:05.191Z,16.30
2023-04-25T18:23:34.190Z,16.20
2023-04-25T18:26:02.332Z,16.10
2023-04-25T18:28:29.305Z,16.00
2023-04-25T18:30:56.753Z,16.00
2023-04-25T18:33:23.638Z,15.90
2023-04-25T18:35:58.680Z,15.70
2023-04-25T18:41:08.338Z,15.70
2023-04-25T18:43:44.536Z,15.70
2023-04-25T18:46:11.449Z,15.70
2023-04-25T18:48:38.163Z,15.70
2023-04-25T18:51:05.667Z,15.60
2023-04-25T18:53:32.434Z,15.50
2023-04-25T18:55:59.143Z,15.30
2023-04-25T18:58:26.421Z,15.20
2023-04-25T19:00:53.625Z,15.10
2023-04-25T19:03:21.286Z,15.20
2023-04-25T19:05:48.042Z,15.30
2023-04-25T19:08:14.676Z,15.30
2023-04-25T19:10:41.374Z,15.20
2023-04-25T19:13:08.662Z,15.10
2023-04-25T19:15:35.689Z,15.10
2023-04-25T19:18:02.663Z,15.00
2023-04-25T19:20:29.492Z,14.80
2023-04-25T19:22:56.770Z,14.70
2023-04-25T19:25:24.831Z,14.80
2023-04-25T19:27:51.983Z,14.70
2023-04-25T19:30:19.211Z,14.80
2023-04-25T19:32:46.078Z,14.70
2023-04-25T19:35:13.370Z,14.60
2023-04-25T19:37:46.304Z,14.60
2023-04-25T19:40:17.505Z,14.60
2023-04-25T19:42:44.898Z,14.40
2023-04-25T19:45:11.995Z,14.40
2023-04-25T19:47:39.217Z,14.40
2023-04-25T19:50:07.784Z,14.40
2023-04-25T19:52:38.568Z,14.40
2023-04-25T19:55:06.046Z,14.30
2023-04-25T19:57:34.025Z,14.20
2023-04-25T20:00:14.410Z,14.30
2023-04-25T20:02:43.325Z,14.20
2023-04-25T20:05:10.276Z,14.10
2023-04-25T20:07:37.158Z,14.20
2023-04-25T20:10:06.775Z,14.20
2023-04-25T20:12:36.715Z,14.20
2023-04-25T20:15:04.538Z,14.10
2023-04-25T20:17:31.326Z,14.20
2023-04-25T20:19:58.041Z,14.10
2023-04-25T20:22:25.552Z,14.10
2023-04-25T20:24:52.730Z,14.00
2023-04-25T20:27:19.379Z,14.00
2023-04-25T20:29:46.167Z,14.00
2023-04-25T20:32:13.025Z,14.00
2023-04-25T20:34:39.801Z,14.00
2023-04-25T20:37:08.409Z,13.90
2023-04-25T20:39:35.834Z,13.80
2023-04-25T20:42:03.079Z,13.90
2023-04-25T20:44:30.489Z,13.70
2023-04-25T20:46:57.194Z,13.80
2023-04-25T20:49:24.009Z,13.80
2023-04-25T20:51:50.989Z,13.80
2023-04-25T20:54:18.005Z,13.70
2023-04-25T20:56:45.308Z,13.70
2023-04-25T20:59:13.056Z,13.80
2023-04-25T21:01:40.203Z,13.70
2023-04-25T21:04:07.374Z,13.80
2023-04-25T21:06:35.097Z,13.60
2023-04-25T21:09:01.790Z,13.50
2023-04-25T21:11:28.677Z,13.50
2023-04-25T21:13:55.748Z,13.60
2023-04-25T21:16:22.417Z,13.60
2023-04-25T21:18:49.424Z,13.50
2023-04-25T21:21:16.264Z,13.50
2023-04-25T21:23:42.972Z,13.40
2023-04-25T21:26:09.753Z,13.40
2023-04-25T21:28:36.726Z,13.40
2023-04-25T21:31:04.131Z,13.50
2023-04-25T21:33:31.078Z,13.50
2023-04-25T21:35:58.116Z,13.40
2023-04-25T21:38:24.880Z,13.40
2023-04-25T21:40:52.240Z,13.50
2023-04-25T21:43:19.208Z,13.50
2023-04-25T21:46:06.333Z,13.40
2023-04-25T21:48:32.626Z,13.40
2023-04-25T21:50:59.691Z,13.50
2023-04-25T21:53:26.754Z,13.40
2023-04-25T21:55:53.503Z,13.40
2023-04-25T21:58:20.229Z,13.40
2023-04-25T22:00:46.928Z,13.30
2023-04-25T22:03:16.152Z,13.40
2023-04-25T22:05:44.265Z,13.50
2023-04-25T22:08:10.993Z,13.40
2023-04-25T22:10:39.807Z,13.30
2023-04-25T22:13:06.618Z,13.30
2023-04-25T22:15:33.318Z,13.50
2023-04-25T22:18:00.102Z,13.50
2023-04-25T22:20:27.914Z,13.30
2023-04-25T22:22:56.336Z,13.30
2023-04-25T22:25:23.943Z,13.30
2023-04-25T22:27:51.499Z,13.20
2023-04-25T22:30:18.619Z,13.20
2023-04-25T22:32:45.495Z,13.20
2023-04-25T22:35:12.419Z,13.10
2023-04-25T22:37:39.179Z,13.00
2023-04-25T22:40:07.275Z,13.00
2023-04-25T22:42:42.148Z,12.90
2023-04-25T22:45:10.020Z,13.00
2023-04-25T22:47:38.771Z,13.00
2023-04-25T22:50:13.333Z,13.00
2023-04-25T22:52:42.381Z,12.90
2023-04-25T22:55:11.768Z,13.00
2023-04-25T22:57:38.900Z,12.90
2023-04-25T23:00:16.733Z,12.90
2023-04-25T23:02:45.942Z,12.90
2023-04-25T23:05:14.208Z,12.90
2023-04-25T23:07:42.155Z,12.90
2023-04-25T23:10:09.367Z,12.90
2023-04-25T23:12:36.079Z,12.80
2023-04-25T23:15:04.923Z,12.80
2023-04-25T23:17:31.638Z,12.90
2023-04-25T23:19:58.365Z,12.80
2023-04-25T23:22:25.070Z,12.90
2023-04-25T23:24:51.745Z,12.80
2023-04-25T23:27:18.473Z,12.90
2023-04-25T23:29:53.272Z,13.00
2023-04-25T23:32:20.412Z,12.90
2023-04-25T23:34:47.073Z,12.80
2023-04-25T23:37:13.910Z,12.70
2023-04-25T23:39:40.574Z,12.70
2023-04-25T23:42:07.802Z,12.70
2023-04-25T23:44:34.462Z,12.70
2023-04-25T23:47:01.168Z,12.70
2023-04-25T23:49:27.835Z,12.60
2023-04-25T23:51:54.583Z,12.50
2023-04-25T23:54:21.277Z,12.50
2023-04-25T23:56:47.946Z,12.60
2023-04-25T23:59:14.742Z,12.60
